Terminal Aerodrome Forecast
Issued by NWS

Home | Current Version | Previous Version | Text Only | Print | Product List | Glossary On
Versions: 1 2 3 4 5 6 7 8 9 10 11 12 13
000
FTUS45 KRIW 141720
TAFCPR
TAF
KCPR 141720Z 1418/1518 24015G23KT P6SM SCT250
     FM142200 28012G20KT P6SM FEW030 BKN070
     FM150300 36006KT P6SM VCSH SCT015 OVC030
     FM150600 02008KT 5SM -SN OVC015
     FM151500 04008KT P6SM SCT015=

USA.gov is the U.S. government's official web portal to all federal, state and local government web resources and services.